sensor_id;sensor_type;location;lat;lon;timestamp;P1;durP1;ratioP1;P2;durP2;ratioP2
15404;SDS011;7801;48.124;11.590;2023-08-17T00:00:46;2.30;;;2.20;;
15404;SDS011;7801;48.124;11.590;2023-08-17T00:03:11;2.27;;;2.17;;
15404;SDS011;7801;48.124;11.590;2023-08-17T00:05:37;2.97;;;1.77;;
15404;SDS011;7801;48.124;11.590;2023-08-17T00:08:02;1.47;;;1.40;;
15404;SDS011;7801;48.124;11.590;2023-08-17T00:10:28;2.07;;;1.63;;
15404;SDS011;7801;48.124;11.590;2023-08-17T00:12:53;1.87;;;1.77;;
15404;SDS011;7801;48.124;11.590;2023-08-17T00:15:18;2.27;;;2.10;;
15404;SDS011;7801;48.124;11.590;2023-08-17T00:17:45;1.87;;;1.77;;
15404;SDS011;7801;48.124;11.590;2023-08-17T00:20:10;2.27;;;2.07;;
15404;SDS011;7801;48.124;11.590;2023-08-17T00:22:37;2.07;;;1.87;;
15404;SDS011;7801;48.124;11.590;2023-08-17T00:25:03;1.47;;;1.37;;
15404;SDS011;7801;48.124;11.590;2023-08-17T00:27:29;1.67;;;1.67;;
15404;SDS011;7801;48.124;11.590;2023-08-17T00:29:57;1.90;;;1.80;;
15404;SDS011;7801;48.124;11.590;2023-08-17T00:32:22;1.73;;;1.63;;
15404;SDS011;7801;48.124;11.590;2023-08-17T00:34:47;1.20;;;1.20;;
15404;SDS011;7801;48.124;11.590;2023-08-17T00:37:13;2.17;;;2.07;;
15404;SDS011;7801;48.124;11.590;2023-08-17T00:39:38;1.73;;;1.73;;
15404;SDS011;7801;48.124;11.590;2023-08-17T00:42:03;6.93;;;2.03;;
15404;SDS011;7801;48.124;11.590;2023-08-17T00:44:29;2.33;;;2.23;;
15404;SDS011;7801;48.124;11.590;2023-08-17T00:46:56;1.37;;;1.37;;
15404;SDS011;7801;48.124;11.590;2023-08-17T00:49:21;1.90;;;1.80;;
15404;SDS011;7801;48.124;11.590;2023-08-17T00:51:47;1.40;;;1.40;;
15404;SDS011;7801;48.124;11.590;2023-08-17T00:54:13;1.83;;;1.73;;
15404;SDS011;7801;48.124;11.590;2023-08-17T00:56:42;1.67;;;1.67;;
15404;SDS011;7801;48.124;11.590;2023-08-17T00:59:11;1.70;;;1.70;;
15404;SDS011;7801;48.124;11.590;2023-08-17T01:01:36;1.17;;;1.17;;
15404;SDS011;7801;48.124;11.590;2023-08-17T01:04:02;2.63;;;1.90;;
15404;SDS011;7801;48.124;11.590;2023-08-17T01:06:27;1.97;;;1.87;;
15404;SDS011;7801;48.124;11.590;2023-08-17T01:08:53;1.53;;;1.53;;
15404;SDS011;7801;48.124;11.590;2023-08-17T01:11:38;1.57;;;1.50;;
15404;SDS011;7801;48.124;11.590;2023-08-17T01:14:12;2.60;;;2.50;;
15404;SDS011;7801;48.124;11.590;2023-08-17T01:19:26;2.60;;;2.50;;
15404;SDS011;7801;48.124;11.590;2023-08-17T01:21:54;1.60;;;1.60;;
15404;SDS011;7801;48.124;11.590;2023-08-17T01:24:25;1.83;;;1.73;;
15404;SDS011;7801;48.124;11.590;2023-08-17T01:26:52;2.07;;;1.97;;
15404;SDS011;7801;48.124;11.590;2023-08-17T01:29:18;1.77;;;1.67;;
15404;SDS011;7801;48.124;11.590;2023-08-17T01:31:54;1.67;;;1.67;;
15404;SDS011;7801;48.124;11.590;2023-08-17T01:34:30;2.23;;;2.13;;
15404;SDS011;7801;48.124;11.590;2023-08-17T01:37:01;1.87;;;1.77;;
15404;SDS011;7801;48.124;11.590;2023-08-17T01:39:37;2.27;;;2.13;;
15404;SDS011;7801;48.124;11.590;2023-08-17T01:42:05;1.70;;;1.70;;
15404;SDS011;7801;48.124;11.590;2023-08-17T01:44:32;3.13;;;1.70;;
15404;SDS011;7801;48.124;11.590;2023-08-17T01:46:59;1.90;;;1.80;;
15404;SDS011;7801;48.124;11.590;2023-08-17T01:49:26;1.10;;;1.10;;
15404;SDS011;7801;48.124;11.590;2023-08-17T01:51:51;1.67;;;1.67;;
15404;SDS011;7801;48.124;11.590;2023-08-17T01:54:18;2.07;;;1.97;;
15404;SDS011;7801;48.124;11.590;2023-08-17T01:56:44;2.07;;;1.97;;
15404;SDS011;7801;48.124;11.590;2023-08-17T01:59:10;1.43;;;1.40;;
15404;SDS011;7801;48.124;11.590;2023-08-17T02:01:35;1.40;;;1.40;;
15404;SDS011;7801;48.124;11.590;2023-08-17T02:04:00;2.07;;;1.97;;
15404;SDS011;7801;48.124;11.590;2023-08-17T02:06:28;1.37;;;1.37;;
15404;SDS011;7801;48.124;11.590;2023-08-17T02:08:55;1.23;;;1.23;;
15404;SDS011;7801;48.124;11.590;2023-08-17T02:11:20;1.57;;;1.57;;
15404;SDS011;7801;48.124;11.590;2023-08-17T02:13:46;1.60;;;1.53;;
15404;SDS011;7801;48.124;11.590;2023-08-17T02:16:11;1.67;;;1.57;;
15404;SDS011;7801;48.124;11.590;2023-08-17T02:18:38;1.83;;;1.73;;
15404;SDS011;7801;48.124;11.590;2023-08-17T02:21:03;2.00;;;1.90;;
15404;SDS011;7801;48.124;11.590;2023-08-17T02:23:28;1.80;;;1.70;;
15404;SDS011;7801;48.124;11.590;2023-08-17T02:25:54;1.63;;;1.63;;
15404;SDS011;7801;48.124;11.590;2023-08-17T02:28:19;1.37;;;1.37;;
15404;SDS011;7801;48.124;11.590;2023-08-17T02:30:45;1.70;;;1.47;;
15404;SDS011;7801;48.124;11.590;2023-08-17T02:33:11;2.27;;;2.17;;
15404;SDS011;7801;48.124;11.590;2023-08-17T02:35:36;2.00;;;1.90;;
15404;SDS011;7801;48.124;11.590;2023-08-17T02:38:02;3.20;;;2.27;;
15404;SDS011;7801;48.124;11.590;2023-08-17T02:40:27;1.43;;;1.43;;
15404;SDS011;7801;48.124;11.590;2023-08-17T02:42:53;1.80;;;1.70;;
15404;SDS011;7801;48.124;11.590;2023-08-17T02:45:18;1.07;;;1.07;;
15404;SDS011;7801;48.124;11.590;2023-08-17T02:47:43;2.70;;;2.07;;
15404;SDS011;7801;48.124;11.590;2023-08-17T02:50:09;2.53;;;2.43;;
15404;SDS011;7801;48.124;11.590;2023-08-17T02:52:35;1.93;;;1.83;;
15404;SDS011;7801;48.124;11.590;2023-08-17T02:55:01;1.60;;;1.60;;
15404;SDS011;7801;48.124;11.590;2023-08-17T02:57:26;1.80;;;1.70;;
15404;SDS011;7801;48.124;11.590;2023-08-17T02:59:53;1.60;;;1.53;;
15404;SDS011;7801;48.124;11.590;2023-08-17T03:02:18;1.97;;;1.97;;
15404;SDS011;7801;48.124;11.590;2023-08-17T03:04:43;2.37;;;2.23;;
15404;SDS011;7801;48.124;11.590;2023-08-17T03:07:09;2.23;;;2.13;;
15404;SDS011;7801;48.124;11.590;2023-08-17T03:09:34;2.30;;;1.80;;
15404;SDS011;7801;48.124;11.590;2023-08-17T03:11:59;1.17;;;1.13;;
15404;SDS011;7801;48.124;11.590;2023-08-17T03:14:26;2.70;;;2.50;;
15404;SDS011;7801;48.124;11.590;2023-08-17T03:16:52;1.63;;;1.63;;
15404;SDS011;7801;48.124;11.590;2023-08-17T03:19:18;2.03;;;1.93;;
15404;SDS011;7801;48.124;11.590;2023-08-17T03:21:43;1.27;;;1.27;;
15404;SDS011;7801;48.124;11.590;2023-08-17T03:24:09;1.93;;;1.83;;
15404;SDS011;7801;48.124;11.590;2023-08-17T03:26:34;1.20;;;1.20;;
15404;SDS011;7801;48.124;11.590;2023-08-17T03:28:59;1.67;;;1.67;;
15404;SDS011;7801;48.124;11.590;2023-08-17T03:31:25;1.87;;;1.80;;
15404;SDS011;7801;48.124;11.590;2023-08-17T03:33:50;1.50;;;1.47;;
15404;SDS011;7801;48.124;11.590;2023-08-17T03:36:15;2.50;;;2.37;;
15404;SDS011;7801;48.124;11.590;2023-08-17T03:38:42;2.17;;;2.07;;
15404;SDS011;7801;48.124;11.590;2023-08-17T03:41:07;1.77;;;1.67;;
15404;SDS011;7801;48.124;11.590;2023-08-17T03:43:32;1.93;;;1.93;;
15404;SDS011;7801;48.124;11.590;2023-08-17T03:45:59;2.10;;;2.00;;
15404;SDS011;7801;48.124;11.590;2023-08-17T03:48:24;1.93;;;1.83;;
15404;SDS011;7801;48.124;11.590;2023-08-17T03:50:51;1.30;;;1.30;;
15404;SDS011;7801;48.124;11.590;2023-08-17T03:53:20;1.50;;;1.43;;
15404;SDS011;7801;48.124;11.590;2023-08-17T03:55:47;4.40;;;1.87;;
15404;SDS011;7801;48.124;11.590;2023-08-17T03:58:12;2.43;;;2.23;;
15404;SDS011;7801;48.124;11.590;2023-08-17T04:00:38;1.10;;;1.10;;
15404;SDS011;7801;48.124;11.590;2023-08-17T04:03:04;1.67;;;1.67;;
15404;SDS011;7801;48.124;11.590;2023-08-17T04:05:29;1.83;;;1.73;;
15404;SDS011;7801;48.124;11.590;2023-08-17T04:07:54;1.30;;;1.30;;
15404;SDS011;7801;48.124;11.590;2023-08-17T04:10:20;1.50;;;1.50;;
15404;SDS011;7801;48.124;11.590;2023-08-17T04:12:45;1.93;;;1.73;;
15404;SDS011;7801;48.124;11.590;2023-08-17T04:15:12;1.67;;;1.63;;
15404;SDS011;7801;48.124;11.590;2023-08-17T04:17:37;1.60;;;1.53;;
15404;SDS011;7801;48.124;11.590;2023-08-17T04:20:03;1.93;;;1.83;;
15404;SDS011;7801;48.124;11.590;2023-08-17T04:22:29;1.87;;;1.77;;
15404;SDS011;7801;48.124;11.590;2023-08-17T04:24:55;2.97;;;2.83;;
15404;SDS011;7801;48.124;11.590;2023-08-17T04:27:20;2.17;;;2.03;;
15404;SDS011;7801;48.124;11.590;2023-08-17T04:29:45;1.60;;;1.53;;
15404;SDS011;7801;48.124;11.590;2023-08-17T04:32:15;2.60;;;2.40;;
15404;SDS011;7801;48.124;11.590;2023-08-17T04:34:42;1.77;;;1.77;;
15404;SDS011;7801;48.124;11.590;2023-08-17T04:37:08;0.97;;;0.97;;
15404;SDS011;7801;48.124;11.590;2023-08-17T04:39:33;1.37;;;1.37;;
15404;SDS011;7801;48.124;11.590;2023-08-17T04:41:59;1.87;;;1.77;;
15404;SDS011;7801;48.124;11.590;2023-08-17T04:44:24;1.53;;;1.53;;
15404;SDS011;7801;48.124;11.590;2023-08-17T04:46:51;1.63;;;1.57;;
15404;SDS011;7801;48.124;11.590;2023-08-17T04:49:16;1.97;;;1.87;;
15404;SDS011;7801;48.124;11.590;2023-08-17T04:51:41;1.70;;;1.63;;
15404;SDS011;7801;48.124;11.590;2023-08-17T04:54:06;6.23;;;1.83;;
15404;SDS011;7801;48.124;11.590;2023-08-17T04:56:33;2.03;;;1.93;;
15404;SDS011;7801;48.124;11.590;2023-08-17T04:58:59;1.80;;;1.73;;
15404;SDS011;7801;48.124;11.590;2023-08-17T05:01:25;1.30;;;1.30;;
15404;SDS011;7801;48.124;11.590;2023-08-17T05:03:51;1.87;;;1.83;;
15404;SDS011;7801;48.124;11.590;2023-08-17T05:06:16;2.30;;;2.20;;
15404;SDS011;7801;48.124;11.590;2023-08-17T05:08:42;2.10;;;1.97;;
15404;SDS011;7801;48.124;11.590;2023-08-17T05:11:08;1.60;;;1.50;;
15404;SDS011;7801;48.124;11.590;2023-08-17T05:13:34;3.07;;;2.13;;
15404;SDS011;7801;48.124;11.590;2023-08-17T05:15:59;2.87;;;2.10;;
15404;SDS011;7801;48.124;11.590;2023-08-17T05:18:25;5.93;;;1.57;;
15404;SDS011;7801;48.124;11.590;2023-08-17T05:20:51;2.23;;;2.10;;
15404;SDS011;7801;48.124;11.590;2023-08-17T05:23:17;2.77;;;2.67;;
15404;SDS011;7801;48.124;11.590;2023-08-17T05:25:45;2.53;;;2.43;;
15404;SDS011;7801;48.124;11.590;2023-08-17T05:28:11;2.57;;;2.37;;
15404;SDS011;7801;48.124;11.590;2023-08-17T05:30:36;2.57;;;2.47;;
15404;SDS011;7801;48.124;11.590;2023-08-17T05:33:02;2.23;;;2.13;;
15404;SDS011;7801;48.124;11.590;2023-08-17T05:35:27;1.53;;;1.53;;
15404;SDS011;7801;48.124;11.590;2023-08-17T05:37:54;1.33;;;1.33;;
15404;SDS011;7801;48.124;11.590;2023-08-17T05:40:19;1.93;;;1.83;;
15404;SDS011;7801;48.124;11.590;2023-08-17T05:42:45;1.60;;;1.60;;
15404;SDS011;7801;48.124;11.590;2023-08-17T05:45:11;9.20;;;2.77;;
15404;SDS011;7801;48.124;11.590;2023-08-17T05:47:36;2.27;;;2.17;;
15404;SDS011;7801;48.124;11.590;2023-08-17T05:50:01;2.07;;;1.97;;
15404;SDS011;7801;48.124;11.590;2023-08-17T05:52:27;1.63;;;1.63;;
15404;SDS011;7801;48.124;11.590;2023-08-17T05:54:53;3.00;;;2.80;;
15404;SDS011;7801;48.124;11.590;2023-08-17T05:57:19;4.73;;;1.93;;
15404;SDS011;7801;48.124;11.590;2023-08-17T05:59:44;1.87;;;1.77;;
15404;SDS011;7801;48.124;11.590;2023-08-17T06:02:09;2.40;;;2.20;;
15404;SDS011;7801;48.124;11.590;2023-08-17T06:04:35;3.47;;;3.27;;
15404;SDS011;7801;48.124;11.590;2023-08-17T06:07:00;2.03;;;1.93;;
15404;SDS011;7801;48.124;11.590;2023-08-17T06:09:26;2.43;;;2.33;;
15404;SDS011;7801;48.124;11.590;2023-08-17T06:11:52;2.10;;;2.00;;
15404;SDS011;7801;48.124;11.590;2023-08-17T06:14:17;1.40;;;1.37;;
15404;SDS011;7801;48.124;11.590;2023-08-17T06:16:43;1.37;;;1.37;;
15404;SDS011;7801;48.124;11.590;2023-08-17T06:19:08;2.23;;;2.13;;
15404;SDS011;7801;48.124;11.590;2023-08-17T06:21:35;2.20;;;2.10;;
15404;SDS011;7801;48.124;11.590;2023-08-17T06:24:00;1.60;;;1.60;;
15404;SDS011;7801;48.124;11.590;2023-08-17T06:26:25;2.17;;;2.07;;
15404;SDS011;7801;48.124;11.590;2023-08-17T06:28:52;1.83;;;1.73;;
15404;SDS011;7801;48.124;11.590;2023-08-17T06:31:18;1.80;;;1.80;;
15404;SDS011;7801;48.124;11.590;2023-08-17T06:33:44;1.67;;;1.60;;
15404;SDS011;7801;48.124;11.590;2023-08-17T06:36:10;1.23;;;1.23;;
15404;SDS011;7801;48.124;11.590;2023-08-17T06:38:40;1.13;;;1.10;;
15404;SDS011;7801;48.124;11.590;2023-08-17T06:41:06;1.87;;;1.80;;
15404;SDS011;7801;48.124;11.590;2023-08-17T06:43:32;1.53;;;1.53;;
15404;SDS011;7801;48.124;11.590;2023-08-17T06:45:59;2.10;;;1.70;;
15404;SDS011;7801;48.124;11.590;2023-08-17T06:48:25;1.37;;;1.37;;
15404;SDS011;7801;48.124;11.590;2023-08-17T06:50:51;1.90;;;1.80;;
15404;SDS011;7801;48.124;11.590;2023-08-17T06:53:16;2.83;;;1.80;;
15404;SDS011;7801;48.124;11.590;2023-08-17T06:55:41;1.63;;;1.40;;
15404;SDS011;7801;48.124;11.590;2023-08-17T06:58:07;1.60;;;1.60;;
15404;SDS011;7801;48.124;11.590;2023-08-17T07:00:32;1.73;;;1.63;;
15404;SDS011;7801;48.124;11.590;2023-08-17T07:02:59;1.43;;;1.40;;
15404;SDS011;7801;48.124;11.590;2023-08-17T07:05:26;2.17;;;2.07;;
15404;SDS011;7801;48.124;11.590;2023-08-17T07:07:53;1.97;;;1.87;;
15404;SDS011;7801;48.124;11.590;2023-08-17T07:10:20;1.20;;;1.20;;
15404;SDS011;7801;48.124;11.590;2023-08-17T07:12:46;1.77;;;1.77;;
15404;SDS011;7801;48.124;11.590;2023-08-17T07:15:12;1.10;;;1.10;;
15404;SDS011;7801;48.124;11.590;2023-08-17T07:17:38;2.03;;;1.93;;
15404;SDS011;7801;48.124;11.590;2023-08-17T07:20:03;2.07;;;1.87;;
15404;SDS011;7801;48.124;11.590;2023-08-17T07:22:31;2.33;;;2.23;;
15404;SDS011;7801;48.124;11.590;2023-08-17T07:24:58;1.53;;;1.50;;
15404;SDS011;7801;48.124;11.590;2023-08-17T07:27:23;1.47;;;1.37;;
15404;SDS011;7801;48.124;11.590;2023-08-17T07:29:48;1.03;;;1.03;;
15404;SDS011;7801;48.124;11.590;2023-08-17T07:32:14;1.10;;;1.10;;
15404;SDS011;7801;48.124;11.590;2023-08-17T07:34:39;1.30;;;1.30;;
15404;SDS011;7801;48.124;11.590;2023-08-17T07:37:04;1.43;;;1.43;;
15404;SDS011;7801;48.124;11.590;2023-08-17T07:39:31;2.23;;;2.03;;
15404;SDS011;7801;48.124;11.590;2023-08-17T07:41:57;3.27;;;3.07;;
15404;SDS011;7801;48.124;11.590;2023-08-17T07:44:23;4.73;;;4.43;;
15404;SDS011;7801;48.124;11.590;2023-08-17T07:46:50;4.37;;;4.07;;
15404;SDS011;7801;48.124;11.590;2023-08-17T07:49:15;9.87;;;6.50;;
15404;SDS011;7801;48.124;11.590;2023-08-17T07:51:42;69.20;;;50.93;;
15404;SDS011;7801;48.124;11.590;2023-08-17T07:54:07;52.83;;;42.60;;
15404;SDS011;7801;48.124;11.590;2023-08-17T07:56:32;31.80;;;26.03;;
15404;SDS011;7801;48.124;11.590;2023-08-17T07:58:59;18.30;;;16.57;;
15404;SDS011;7801;48.124;11.590;2023-08-17T08:01:24;13.13;;;11.93;;
15404;SDS011;7801;48.124;11.590;2023-08-17T08:03:51;11.73;;;10.57;;
15404;SDS011;7801;48.124;11.590;2023-08-17T08:06:18;12.60;;;10.37;;
15404;SDS011;7801;48.124;11.590;2023-08-17T08:08:45;6.43;;;5.93;;
15404;SDS011;7801;48.124;11.590;2023-08-17T08:11:10;4.97;;;4.57;;
15404;SDS011;7801;48.124;11.590;2023-08-17T08:13:36;8.23;;;7.57;;
15404;SDS011;7801;48.124;11.590;2023-08-17T08:16:03;78.03;;;46.73;;
15404;SDS011;7801;48.124;11.590;2023-08-17T08:18:30;10.63;;;9.77;;
15404;SDS011;7801;48.124;11.590;2023-08-17T08:20:55;2.60;;;2.47;;
15404;SDS011;7801;48.124;11.590;2023-08-17T08:23:20;1.23;;;1.23;;
15404;SDS011;7801;48.124;11.590;2023-08-17T08:25:46;2.03;;;1.93;;
15404;SDS011;7801;48.124;11.590;2023-08-17T08:28:13;1.50;;;1.47;;
15404;SDS011;7801;48.124;11.590;2023-08-17T08:30:39;1.20;;;1.20;;
15404;SDS011;7801;48.124;11.590;2023-08-17T08:33:05;2.30;;;2.20;;
15404;SDS011;7801;48.124;11.590;2023-08-17T08:35:30;2.07;;;1.97;;
15404;SDS011;7801;48.124;11.590;2023-08-17T08:37:55;1.20;;;1.20;;
15404;SDS011;7801;48.124;11.590;2023-08-17T08:40:21;1.10;;;1.10;;
15404;SDS011;7801;48.124;11.590;2023-08-17T08:42:53;2.37;;;1.50;;
15404;SDS011;7801;48.124;11.590;2023-08-17T08:45:18;1.83;;;1.83;;
15404;SDS011;7801;48.124;11.590;2023-08-17T08:47:44;2.03;;;1.93;;
15404;SDS011;7801;48.124;11.590;2023-08-17T08:50:10;1.47;;;1.40;;
15404;SDS011;7801;48.124;11.590;2023-08-17T08:52:42;1.07;;;1.07;;
15404;SDS011;7801;48.124;11.590;2023-08-17T08:55:14;4.23;;;1.17;;
15404;SDS011;7801;48.124;11.590;2023-08-17T08:57:42;1.00;;;1.00;;
15404;SDS011;7801;48.124;11.590;2023-08-17T09:00:08;0.97;;;0.97;;
15404;SDS011;7801;48.124;11.590;2023-08-17T09:02:34;1.40;;;1.30;;
15404;SDS011;7801;48.124;11.590;2023-08-17T09:05:00;1.60;;;1.50;;
15404;SDS011;7801;48.124;11.590;2023-08-17T09:07:28;1.80;;;1.70;;
15404;SDS011;7801;48.124;11.590;2023-08-17T09:09:55;0.90;;;0.90;;
15404;SDS011;7801;48.124;11.590;2023-08-17T09:12:22;1.37;;;1.37;;
15404;SDS011;7801;48.124;11.590;2023-08-17T09:14:48;1.13;;;1.13;;
15404;SDS011;7801;48.124;11.590;2023-08-17T09:17:13;1.27;;;1.17;;
15404;SDS011;7801;48.124;11.590;2023-08-17T09:19:40;1.57;;;1.57;;
15404;SDS011;7801;48.124;11.590;2023-08-17T09:22:12;1.33;;;1.33;;
15404;SDS011;7801;48.124;11.590;2023-08-17T09:24:37;2.50;;;2.40;;
15404;SDS011;7801;48.124;11.590;2023-08-17T09:27:03;1.47;;;1.47;;
15404;SDS011;7801;48.124;11.590;2023-08-17T09:29:29;0.77;;;0.77;;
15404;SDS011;7801;48.124;11.590;2023-08-17T09:32:05;1.30;;;1.30;;
15404;SDS011;7801;48.124;11.590;2023-08-17T09:34:32;1.57;;;1.47;;
15404;SDS011;7801;48.124;11.590;2023-08-17T09:37:01;2.30;;;2.20;;
15404;SDS011;7801;48.124;11.590;2023-08-17T09:39:30;1.30;;;1.30;;
15404;SDS011;7801;48.124;11.590;2023-08-17T09:41:59;1.33;;;1.23;;
15404;SDS011;7801;48.124;11.590;2023-08-17T09:44:25;1.40;;;1.40;;
15404;SDS011;7801;48.124;11.590;2023-08-17T09:46:51;1.10;;;1.10;;
15404;SDS011;7801;48.124;11.590;2023-08-17T09:49:17;1.57;;;1.47;;
15404;SDS011;7801;48.124;11.590;2023-08-17T09:51:43;1.33;;;1.33;;
15404;SDS011;7801;48.124;11.590;2023-08-17T09:54:31;1.37;;;1.37;;
15404;SDS011;7801;48.124;11.590;2023-08-17T09:56:56;0.70;;;0.70;;
15404;SDS011;7801;48.124;11.590;2023-08-17T09:59:23;0.73;;;0.73;;
15404;SDS011;7801;48.124;11.590;2023-08-17T10:01:50;1.27;;;1.27;;
15404;SDS011;7801;48.124;11.590;2023-08-17T10:04:22;2.63;;;1.53;;
15404;SDS011;7801;48.124;11.590;2023-08-17T10:09:19;3.10;;;2.90;;
15404;SDS011;7801;48.124;11.590;2023-08-17T10:11:49;2.30;;;2.20;;
15404;SDS011;7801;48.124;11.590;2023-08-17T10:14:21;1.40;;;1.40;;
15404;SDS011;7801;48.124;11.590;2023-08-17T10:17:03;6.53;;;5.07;;
15404;SDS011;7801;48.124;11.590;2023-08-17T10:22:27;7.33;;;6.60;;
15404;SDS011;7801;48.124;11.590;2023-08-17T10:25:03;2.37;;;2.17;;
15404;SDS011;7801;48.124;11.590;2023-08-17T10:27:30;1.30;;;1.30;;
15404;SDS011;7801;48.124;11.590;2023-08-17T10:29:57;3.13;;;2.93;;
15404;SDS011;7801;48.124;11.590;2023-08-17T10:32:23;1.73;;;1.63;;
15404;SDS011;7801;48.124;11.590;2023-08-17T10:34:50;4.77;;;4.47;;
15404;SDS011;7801;48.124;11.590;2023-08-17T10:37:17;5.17;;;4.50;;
15404;SDS011;7801;48.124;11.590;2023-08-17T10:39:47;8.93;;;6.37;;
15404;SDS011;7801;48.124;11.590;2023-08-17T10:42:15;1.97;;;0.80;;
15404;SDS011;7801;48.124;11.590;2023-08-17T10:44:49;1.20;;;1.20;;
15404;SDS011;7801;48.124;11.590;2023-08-17T10:50:03;0.93;;;0.87;;
15404;SDS011;7801;48.124;11.590;2023-08-17T10:52:32;1.30;;;1.30;;
15404;SDS011;7801;48.124;11.590;2023-08-17T10:55:01;1.00;;;1.00;;
15404;SDS011;7801;48.124;11.590;2023-08-17T11:02:38;0.93;;;0.93;;
15404;SDS011;7801;48.124;11.590;2023-08-17T11:05:04;1.50;;;1.50;;
15404;SDS011;7801;48.124;11.590;2023-08-17T11:07:40;0.93;;;0.93;;
15404;SDS011;7801;48.124;11.590;2023-08-17T11:10:26;3.80;;;3.17;;
15404;SDS011;7801;48.124;11.590;2023-08-17T11:12:58;3.00;;;2.70;;
15404;SDS011;7801;48.124;11.590;2023-08-17T11:15:25;1.43;;;1.43;;
15404;SDS011;7801;48.124;11.590;2023-08-17T11:17:51;0.90;;;0.90;;
15404;SDS011;7801;48.124;11.590;2023-08-17T11:20:17;0.77;;;0.77;;
15404;SDS011;7801;48.124;11.590;2023-08-17T11:22:43;0.93;;;0.93;;
15404;SDS011;7801;48.124;11.590;2023-08-17T11:25:08;1.03;;;0.70;;
15404;SDS011;7801;48.124;11.590;2023-08-17T11:27:35;1.47;;;1.33;;
15404;SDS011;7801;48.124;11.590;2023-08-17T11:30:00;1.20;;;1.20;;
15404;SDS011;7801;48.124;11.590;2023-08-17T11:32:25;1.43;;;1.33;;
15404;SDS011;7801;48.124;11.590;2023-08-17T11:34:51;1.30;;;1.30;;
15404;SDS011;7801;48.124;11.590;2023-08-17T11:37:16;1.73;;;1.63;;
15404;SDS011;7801;48.124;11.590;2023-08-17T11:39:42;1.67;;;1.67;;
15404;SDS011;7801;48.124;11.590;2023-08-17T11:42:07;1.30;;;1.30;;
15404;SDS011;7801;48.124;11.590;2023-08-17T11:44:33;1.33;;;1.33;;
15404;SDS011;7801;48.124;11.590;2023-08-17T11:47:00;2.17;;;2.07;;
15404;SDS011;7801;48.124;11.590;2023-08-17T11:49:25;1.00;;;1.00;;
15404;SDS011;7801;48.124;11.590;2023-08-17T11:51:53;1.17;;;1.17;;
15404;SDS011;7801;48.124;11.590;2023-08-17T11:54:18;0.83;;;0.83;;
15404;SDS011;7801;48.124;11.590;2023-08-17T11:56:44;1.03;;;1.03;;
15404;SDS011;7801;48.124;11.590;2023-08-17T11:59:09;1.23;;;1.23;;
15404;SDS011;7801;48.124;11.590;2023-08-17T12:01:38;1.30;;;1.30;;
15404;SDS011;7801;48.124;11.590;2023-08-17T12:04:04;1.47;;;1.40;;
15404;SDS011;7801;48.124;11.590;2023-08-17T12:06:30;1.10;;;1.10;;
15404;SDS011;7801;48.124;11.590;2023-08-17T12:08:56;1.17;;;1.17;;
15404;SDS011;7801;48.124;11.590;2023-08-17T12:11:23;1.27;;;1.27;;
15404;SDS011;7801;48.124;11.590;2023-08-17T12:13:51;1.33;;;1.33;;
15404;SDS011;7801;48.124;11.590;2023-08-17T12:16:17;1.83;;;1.13;;
15404;SDS011;7801;48.124;11.590;2023-08-17T12:18:51;1.10;;;1.10;;
15404;SDS011;7801;48.124;11.590;2023-08-17T12:21:20;1.30;;;1.30;;
15404;SDS011;7801;48.124;11.590;2023-08-17T12:23:47;1.13;;;1.13;;
15404;SDS011;7801;48.124;11.590;2023-08-17T12:26:20;1.43;;;0.80;;
15404;SDS011;7801;48.124;11.590;2023-08-17T12:28:46;1.17;;;1.17;;
15404;SDS011;7801;48.124;11.590;2023-08-17T12:31:11;1.00;;;1.00;;
15404;SDS011;7801;48.124;11.590;2023-08-17T12:33:36;3.33;;;3.07;;
15404;SDS011;7801;48.124;11.590;2023-08-17T12:36:02;2.37;;;2.27;;
15404;SDS011;7801;48.124;11.590;2023-08-17T12:38:29;1.00;;;1.00;;
15404;SDS011;7801;48.124;11.590;2023-08-17T12:40:54;2.47;;;2.27;;
15404;SDS011;7801;48.124;11.590;2023-08-17T12:43:19;1.07;;;1.07;;
15404;SDS011;7801;48.124;11.590;2023-08-17T12:45:46;1.47;;;1.47;;
15404;SDS011;7801;48.124;11.590;2023-08-17T12:48:11;1.40;;;1.37;;
15404;SDS011;7801;48.124;11.590;2023-08-17T12:50:37;1.20;;;1.20;;
15404;SDS011;7801;48.124;11.590;2023-08-17T12:53:02;1.63;;;1.63;;
15404;SDS011;7801;48.124;11.590;2023-08-17T12:55:27;1.23;;;1.23;;
15404;SDS011;7801;48.124;11.590;2023-08-17T12:57:54;0.70;;;0.70;;
15404;SDS011;7801;48.124;11.590;2023-08-17T13:00:21;1.03;;;1.03;;
15404;SDS011;7801;48.124;11.590;2023-08-17T13:02:47;1.07;;;1.07;;
15404;SDS011;7801;48.124;11.590;2023-08-17T13:05:16;1.60;;;1.60;;
15404;SDS011;7801;48.124;11.590;2023-08-17T13:07:41;1.33;;;1.33;;
15404;SDS011;7801;48.124;11.590;2023-08-17T13:10:07;1.80;;;1.70;;
15404;SDS011;7801;48.124;11.590;2023-08-17T13:12:32;0.97;;;0.97;;
15404;SDS011;7801;48.124;11.590;2023-08-17T13:14:57;1.00;;;1.00;;
15404;SDS011;7801;48.124;11.590;2023-08-17T13:17:23;0.50;;;0.50;;
15404;SDS011;7801;48.124;11.590;2023-08-17T13:19:50;1.13;;;1.13;;
15404;SDS011;7801;48.124;11.590;2023-08-17T13:22:16;1.13;;;1.13;;
15404;SDS011;7801;48.124;11.590;2023-08-17T13:24:42;1.47;;;1.27;;
15404;SDS011;7801;48.124;11.590;2023-08-17T13:27:07;1.17;;;1.07;;
15404;SDS011;7801;48.124;11.590;2023-08-17T13:29:32;1.33;;;1.33;;
15404;SDS011;7801;48.124;11.590;2023-08-17T13:31:58;1.90;;;1.80;;
15404;SDS011;7801;48.124;11.590;2023-08-17T13:34:23;1.37;;;1.37;;
15404;SDS011;7801;48.124;11.590;2023-08-17T13:36:50;1.47;;;1.37;;
15404;SDS011;7801;48.124;11.590;2023-08-17T13:39:15;1.03;;;1.03;;
15404;SDS011;7801;48.124;11.590;2023-08-17T13:41:41;0.70;;;0.70;;
15404;SDS011;7801;48.124;11.590;2023-08-17T13:44:08;5.80;;;2.23;;
15404;SDS011;7801;48.124;11.590;2023-08-17T13:46:33;1.90;;;1.80;;
15404;SDS011;7801;48.124;11.590;2023-08-17T13:48:58;1.50;;;1.47;;
15404;SDS011;7801;48.124;11.590;2023-08-17T13:51:25;1.30;;;1.20;;
15404;SDS011;7801;48.124;11.590;2023-08-17T13:53:50;1.07;;;1.00;;
15404;SDS011;7801;48.124;11.590;2023-08-17T13:56:16;1.03;;;1.03;;
15404;SDS011;7801;48.124;11.590;2023-08-17T13:58:43;0.77;;;0.77;;
15404;SDS011;7801;48.124;11.590;2023-08-17T14:01:08;1.53;;;1.50;;
15404;SDS011;7801;48.124;11.590;2023-08-17T14:03:38;1.17;;;1.17;;
15404;SDS011;7801;48.124;11.590;2023-08-17T14:06:03;1.73;;;1.63;;
15404;SDS011;7801;48.124;11.590;2023-08-17T14:08:28;2.00;;;1.90;;
15404;SDS011;7801;48.124;11.590;2023-08-17T14:10:55;2.03;;;1.83;;
15404;SDS011;7801;48.124;11.590;2023-08-17T14:13:20;2.27;;;2.00;;
15404;SDS011;7801;48.124;11.590;2023-08-17T14:15:47;2.10;;;1.57;;
15404;SDS011;7801;48.124;11.590;2023-08-17T14:18:12;0.80;;;0.80;;
15404;SDS011;7801;48.124;11.590;2023-08-17T14:20:37;2.70;;;2.53;;
15404;SDS011;7801;48.124;11.590;2023-08-17T14:23:03;2.27;;;2.17;;
15404;SDS011;7801;48.124;11.590;2023-08-17T14:25:28;1.20;;;1.20;;
15404;SDS011;7801;48.124;11.590;2023-08-17T14:27:54;1.30;;;1.30;;
15404;SDS011;7801;48.124;11.590;2023-08-17T14:30:20;1.23;;;1.17;;
15404;SDS011;7801;48.124;11.590;2023-08-17T14:32:45;1.70;;;1.60;;
15404;SDS011;7801;48.124;11.590;2023-08-17T14:35:11;0.97;;;0.97;;
15404;SDS011;7801;48.124;11.590;2023-08-17T14:37:36;1.97;;;1.87;;
15404;SDS011;7801;48.124;11.590;2023-08-17T14:40:02;1.33;;;1.33;;
15404;SDS011;7801;48.124;11.590;2023-08-17T14:42:28;1.43;;;1.43;;
15404;SDS011;7801;48.124;11.590;2023-08-17T14:48:15;1.37;;;1.27;;
15404;SDS011;7801;48.124;11.590;2023-08-17T14:50:41;0.87;;;0.87;;
15404;SDS011;7801;48.124;11.590;2023-08-17T14:53:06;1.27;;;1.27;;
15404;SDS011;7801;48.124;11.590;2023-08-17T14:55:32;1.10;;;1.10;;
15404;SDS011;7801;48.124;11.590;2023-08-17T14:57:59;1.57;;;1.57;;
15404;SDS011;7801;48.124;11.590;2023-08-17T15:00:25;1.70;;;1.70;;
15404;SDS011;7801;48.124;11.590;2023-08-17T15:03:01;1.43;;;1.43;;